Pagrindinis puslapis
METAR-TAF:

METAR-TAF

Oro uostai :

Lihue, Havajai, Jungtinės Amerikos Valstijos

platuma: 21-59-02N, ilguma: 159-20-28W, Aukštis: 45 m

Dabartinis oras

Ataskaita buvo paskelbta 14 minutes, ne 08:53 UTC
Vėjas 13 kt iš Rytų
Temperatūra 28°C
Drėgmė 74%
Slėgis 1015 hPa
Matomumas: 16.1 km
Mažai debesys ne aukštis 2000 ft
Su prošvaistėmis ne aukštis 4300 ft

METAR: PHLI 180853Z AUTO 09013KT 10SM FEW020 BKN043 28/23 A2996 RMK AO2 SLP143 T02780228 50008 TSNO $

Laikas: 23:07 (09:07 UTC)

Prognozė

Ataskaita buvo paskelbta 3 valandos ir 47 minutes, ne 05:20 UTC
Prognozė galioja nuo 18 metu 06 UTC su 19 metu 06 UTC
Vėjas 11 kt iš Rytų
Matomumas: 10 km
Išsisklaidę debesys ne aukštis 2000 ft
Su prošvaistėmis ne aukštis 4500 ft
Liūtis kaimynystėje
Nuo 18 metu 2000 UTC
Vėjas 12 kt iš Rytų
Matomumas: 10 km
Mažai debesys ne aukštis 2300 ft
Išsisklaidę debesys ne aukštis 4500 ft

TAF: PHLI 180520Z 1806/1906 08011KT P6SM VCSH SCT020 BKN045 FM182000 09012KT P6SM FEW023 SCT045

Orai ataskaitas ir orų prognozės (METAR, TAF).

turimą stotys yra geltonos ir raudonos taškus žemėlapyje.

Perkelti pele per norėdami pamatyti stoties vardą.

Tada spustelėkite, norėdami matyti oro stebėjimo ir prognozės.

Norėdami pakeisti žemėlapį: spustelėkite ant žalios mygtukų su juodo kryžiaus žemyn,; žalią mygtuką su brūkšneliu, jei norite nutolinti; arba žalių rodyklių gretimoms žemėlapius.


METAR-TAF: